sensor_id;sensor_type;location;lat;lon;timestamp;P1;durP1;ratioP1;P2;durP2;ratioP2
11988;SDS011;6054;50.966;7.094;2023-05-15T00:02:10;2.50;;;2.20;;
11988;SDS011;6054;50.966;7.094;2023-05-15T00:04:38;2.58;;;2.38;;
11988;SDS011;6054;50.966;7.094;2023-05-15T00:07:05;4.72;;;2.22;;
11988;SDS011;6054;50.966;7.094;2023-05-15T00:09:31;2.70;;;2.53;;
11988;SDS011;6054;50.966;7.094;2023-05-15T00:11:58;5.78;;;2.30;;
11988;SDS011;6054;50.966;7.094;2023-05-15T00:14:26;6.63;;;2.70;;
11988;SDS011;6054;50.966;7.094;2023-05-15T00:16:53;2.70;;;2.50;;
11988;SDS011;6054;50.966;7.094;2023-05-15T00:19:20;2.53;;;2.22;;
11988;SDS011;6054;50.966;7.094;2023-05-15T00:21:47;2.85;;;2.60;;
11988;SDS011;6054;50.966;7.094;2023-05-15T00:24:13;2.80;;;2.60;;
11988;SDS011;6054;50.966;7.094;2023-05-15T00:26:40;3.05;;;2.28;;
11988;SDS011;6054;50.966;7.094;2023-05-15T00:29:07;2.78;;;2.40;;
11988;SDS011;6054;50.966;7.094;2023-05-15T00:31:35;2.60;;;2.40;;
11988;SDS011;6054;50.966;7.094;2023-05-15T00:34:02;2.70;;;2.33;;
11988;SDS011;6054;50.966;7.094;2023-05-15T00:36:29;3.42;;;2.50;;
11988;SDS011;6054;50.966;7.094;2023-05-15T00:38:55;2.85;;;2.65;;
11988;SDS011;6054;50.966;7.094;2023-05-15T00:41:22;2.75;;;2.55;;
11988;SDS011;6054;50.966;7.094;2023-05-15T00:43:52;2.67;;;2.50;;
11988;SDS011;6054;50.966;7.094;2023-05-15T00:46:21;3.08;;;2.53;;
11988;SDS011;6054;50.966;7.094;2023-05-15T00:48:51;3.65;;;2.38;;
11988;SDS011;6054;50.966;7.094;2023-05-15T00:51:18;2.83;;;2.42;;
11988;SDS011;6054;50.966;7.094;2023-05-15T00:53:45;2.53;;;2.42;;
11988;SDS011;6054;50.966;7.094;2023-05-15T00:56:12;2.85;;;2.28;;
11988;SDS011;6054;50.966;7.094;2023-05-15T00:58:41;2.72;;;2.53;;
11988;SDS011;6054;50.966;7.094;2023-05-15T01:01:09;4.72;;;2.55;;
11988;SDS011;6054;50.966;7.094;2023-05-15T01:03:36;2.92;;;2.60;;
11988;SDS011;6054;50.966;7.094;2023-05-15T01:06:05;2.60;;;2.40;;
11988;SDS011;6054;50.966;7.094;2023-05-15T01:08:33;6.50;;;2.97;;
11988;SDS011;6054;50.966;7.094;2023-05-15T01:11:03;3.85;;;2.50;;
11988;SDS011;6054;50.966;7.094;2023-05-15T01:13:32;2.78;;;2.58;;
11988;SDS011;6054;50.966;7.094;2023-05-15T01:15:59;2.88;;;2.65;;
11988;SDS011;6054;50.966;7.094;2023-05-15T01:18:26;6.22;;;2.85;;
11988;SDS011;6054;50.966;7.094;2023-05-15T01:24:15;3.97;;;2.60;;
11988;SDS011;6054;50.966;7.094;2023-05-15T01:27:13;3.03;;;2.70;;
11988;SDS011;6054;50.966;7.094;2023-05-15T01:29:46;2.83;;;2.20;;
11988;SDS011;6054;50.966;7.094;2023-05-15T01:32:22;2.50;;;2.30;;
11988;SDS011;6054;50.966;7.094;2023-05-15T01:34:52;2.85;;;2.65;;
11988;SDS011;6054;50.966;7.094;2023-05-15T01:37:27;2.38;;;2.28;;
11988;SDS011;6054;50.966;7.094;2023-05-15T01:39:57;3.10;;;2.88;;
11988;SDS011;6054;50.966;7.094;2023-05-15T01:42:32;3.28;;;2.80;;
11988;SDS011;6054;50.966;7.094;2023-05-15T01:45:00;2.80;;;2.60;;
11988;SDS011;6054;50.966;7.094;2023-05-15T01:47:30;3.30;;;3.10;;
11988;SDS011;6054;50.966;7.094;2023-05-15T01:50:01;5.00;;;3.13;;
11988;SDS011;6054;50.966;7.094;2023-05-15T01:52:29;3.88;;;2.72;;
11988;SDS011;6054;50.966;7.094;2023-05-15T01:54:59;5.80;;;2.75;;
11988;SDS011;6054;50.966;7.094;2023-05-15T01:57:27;3.72;;;2.97;;
11988;SDS011;6054;50.966;7.094;2023-05-15T01:59:56;4.47;;;2.53;;
11988;SDS011;6054;50.966;7.094;2023-05-15T02:02:24;3.03;;;2.53;;
11988;SDS011;6054;50.966;7.094;2023-05-15T02:04:53;2.88;;;2.67;;
11988;SDS011;6054;50.966;7.094;2023-05-15T02:07:20;3.35;;;2.53;;
11988;SDS011;6054;50.966;7.094;2023-05-15T02:09:49;6.03;;;3.10;;
11988;SDS011;6054;50.966;7.094;2023-05-15T02:12:17;3.35;;;2.53;;
11988;SDS011;6054;50.966;7.094;2023-05-15T02:14:44;2.85;;;2.65;;
11988;SDS011;6054;50.966;7.094;2023-05-15T02:17:15;2.72;;;2.53;;
11988;SDS011;6054;50.966;7.094;2023-05-15T02:19:41;4.03;;;2.53;;
11988;SDS011;6054;50.966;7.094;2023-05-15T02:22:09;2.75;;;2.42;;
11988;SDS011;6054;50.966;7.094;2023-05-15T02:24:35;3.08;;;2.53;;
11988;SDS011;6054;50.966;7.094;2023-05-15T02:27:04;2.85;;;2.65;;
11988;SDS011;6054;50.966;7.094;2023-05-15T02:29:41;5.50;;;2.50;;
11988;SDS011;6054;50.966;7.094;2023-05-15T02:32:19;2.80;;;2.60;;
11988;SDS011;6054;50.966;7.094;2023-05-15T02:35:02;2.60;;;2.40;;
11988;SDS011;6054;50.966;7.094;2023-05-15T02:37:37;4.50;;;2.40;;
11988;SDS011;6054;50.966;7.094;2023-05-15T02:40:06;3.10;;;2.50;;
11988;SDS011;6054;50.966;7.094;2023-05-15T02:42:35;2.60;;;2.40;;
11988;SDS011;6054;50.966;7.094;2023-05-15T02:45:02;6.85;;;2.60;;
11988;SDS011;6054;50.966;7.094;2023-05-15T02:47:34;3.90;;;3.13;;
11988;SDS011;6054;50.966;7.094;2023-05-15T02:50:02;3.72;;;2.55;;
11988;SDS011;6054;50.966;7.094;2023-05-15T02:52:30;2.90;;;2.58;;
11988;SDS011;6054;50.966;7.094;2023-05-15T02:54:58;2.75;;;2.60;;
11988;SDS011;6054;50.966;7.094;2023-05-15T02:57:25;2.53;;;2.42;;
11988;SDS011;6054;50.966;7.094;2023-05-15T02:59:52;2.90;;;2.53;;
11988;SDS011;6054;50.966;7.094;2023-05-15T03:02:20;2.72;;;2.53;;
11988;SDS011;6054;50.966;7.094;2023-05-15T03:04:48;2.70;;;2.50;;
11988;SDS011;6054;50.966;7.094;2023-05-15T03:07:14;2.65;;;2.40;;
11988;SDS011;6054;50.966;7.094;2023-05-15T03:09:41;3.05;;;2.53;;
11988;SDS011;6054;50.966;7.094;2023-05-15T03:12:08;4.93;;;2.97;;
11988;SDS011;6054;50.966;7.094;2023-05-15T03:14:35;2.85;;;2.65;;
11988;SDS011;6054;50.966;7.094;2023-05-15T03:17:02;3.10;;;2.90;;
11988;SDS011;6054;50.966;7.094;2023-05-15T03:19:29;4.55;;;2.78;;
11988;SDS011;6054;50.966;7.094;2023-05-15T03:21:57;6.85;;;3.08;;
11988;SDS011;6054;50.966;7.094;2023-05-15T03:24:24;3.70;;;3.35;;
11988;SDS011;6054;50.966;7.094;2023-05-15T03:26:51;3.85;;;3.00;;
11988;SDS011;6054;50.966;7.094;2023-05-15T03:29:18;3.95;;;3.50;;
11988;SDS011;6054;50.966;7.094;2023-05-15T03:31:45;5.47;;;2.83;;
11988;SDS011;6054;50.966;7.094;2023-05-15T03:34:12;3.00;;;2.65;;
11988;SDS011;6054;50.966;7.094;2023-05-15T03:36:38;4.90;;;3.50;;
11988;SDS011;6054;50.966;7.094;2023-05-15T03:39:06;3.22;;;3.03;;
11988;SDS011;6054;50.966;7.094;2023-05-15T03:41:33;5.28;;;3.92;;
11988;SDS011;6054;50.966;7.094;2023-05-15T03:44:00;6.20;;;4.22;;
11988;SDS011;6054;50.966;7.094;2023-05-15T03:46:27;4.85;;;3.95;;
11988;SDS011;6054;50.966;7.094;2023-05-15T03:48:54;4.72;;;3.92;;
11988;SDS011;6054;50.966;7.094;2023-05-15T03:51:21;5.88;;;5.18;;
11988;SDS011;6054;50.966;7.094;2023-05-15T03:53:48;6.85;;;5.53;;
11988;SDS011;6054;50.966;7.094;2023-05-15T03:56:16;32.75;;;18.98;;
11988;SDS011;6054;50.966;7.094;2023-05-15T03:58:43;36.47;;;20.33;;
11988;SDS011;6054;50.966;7.094;2023-05-15T04:01:10;36.97;;;20.92;;
11988;SDS011;6054;50.966;7.094;2023-05-15T04:03:37;33.40;;;21.30;;
11988;SDS011;6054;50.966;7.094;2023-05-15T04:06:04;45.45;;;23.88;;
11988;SDS011;6054;50.966;7.094;2023-05-15T04:08:31;38.03;;;22.20;;
11988;SDS011;6054;50.966;7.094;2023-05-15T04:10:57;38.67;;;22.20;;
11988;SDS011;6054;50.966;7.094;2023-05-15T04:13:26;41.90;;;23.98;;
11988;SDS011;6054;50.966;7.094;2023-05-15T04:15:52;38.13;;;22.15;;
11988;SDS011;6054;50.966;7.094;2023-05-15T04:18:19;43.95;;;24.00;;
11988;SDS011;6054;50.966;7.094;2023-05-15T04:20:46;39.67;;;22.98;;
11988;SDS011;6054;50.966;7.094;2023-05-15T04:23:13;41.60;;;23.48;;
11988;SDS011;6054;50.966;7.094;2023-05-15T04:25:40;41.72;;;24.10;;
11988;SDS011;6054;50.966;7.094;2023-05-15T04:28:10;38.70;;;23.48;;
11988;SDS011;6054;50.966;7.094;2023-05-15T04:30:38;49.10;;;23.60;;
11988;SDS011;6054;50.966;7.094;2023-05-15T04:33:05;48.38;;;27.40;;
11988;SDS011;6054;50.966;7.094;2023-05-15T04:35:32;46.40;;;24.05;;
11988;SDS011;6054;50.966;7.094;2023-05-15T04:37:59;43.03;;;24.67;;
11988;SDS011;6054;50.966;7.094;2023-05-15T04:40:26;51.00;;;26.15;;
11988;SDS011;6054;50.966;7.094;2023-05-15T04:42:53;49.15;;;27.30;;
11988;SDS011;6054;50.966;7.094;2023-05-15T04:45:20;44.90;;;26.40;;
11988;SDS011;6054;50.966;7.094;2023-05-15T04:47:49;47.30;;;27.13;;
11988;SDS011;6054;50.966;7.094;2023-05-15T04:50:16;46.13;;;26.27;;
11988;SDS011;6054;50.966;7.094;2023-05-15T04:52:43;50.38;;;26.92;;
11988;SDS011;6054;50.966;7.094;2023-05-15T04:55:09;40.25;;;24.33;;
11988;SDS011;6054;50.966;7.094;2023-05-15T04:57:36;50.03;;;24.73;;
11988;SDS011;6054;50.966;7.094;2023-05-15T05:00:03;44.10;;;25.30;;
11988;SDS011;6054;50.966;7.094;2023-05-15T05:02:34;49.50;;;28.40;;
11988;SDS011;6054;50.966;7.094;2023-05-15T05:05:03;45.10;;;28.05;;
11988;SDS011;6054;50.966;7.094;2023-05-15T05:07:31;42.85;;;26.88;;
11988;SDS011;6054;50.966;7.094;2023-05-15T05:09:58;43.55;;;26.80;;
11988;SDS011;6054;50.966;7.094;2023-05-15T05:12:25;42.20;;;26.98;;
11988;SDS011;6054;50.966;7.094;2023-05-15T05:14:51;45.13;;;26.60;;
11988;SDS011;6054;50.966;7.094;2023-05-15T05:17:19;43.92;;;25.70;;
11988;SDS011;6054;50.966;7.094;2023-05-15T05:19:46;43.13;;;25.73;;
11988;SDS011;6054;50.966;7.094;2023-05-15T05:22:14;45.92;;;25.92;;
11988;SDS011;6054;50.966;7.094;2023-05-15T05:24:41;39.55;;;25.02;;
11988;SDS011;6054;50.966;7.094;2023-05-15T05:27:08;40.25;;;26.08;;
11988;SDS011;6054;50.966;7.094;2023-05-15T05:29:35;36.75;;;24.88;;
11988;SDS011;6054;50.966;7.094;2023-05-15T05:32:01;38.25;;;25.98;;
11988;SDS011;6054;50.966;7.094;2023-05-15T05:34:28;39.80;;;26.83;;
11988;SDS011;6054;50.966;7.094;2023-05-15T05:36:55;43.08;;;30.40;;
11988;SDS011;6054;50.966;7.094;2023-05-15T05:39:23;44.38;;;31.02;;
11988;SDS011;6054;50.966;7.094;2023-05-15T05:41:50;44.53;;;31.20;;
11988;SDS011;6054;50.966;7.094;2023-05-15T05:44:17;40.38;;;30.08;;
11988;SDS011;6054;50.966;7.094;2023-05-15T05:46:44;41.15;;;30.42;;
11988;SDS011;6054;50.966;7.094;2023-05-15T05:49:10;43.05;;;29.63;;
11988;SDS011;6054;50.966;7.094;2023-05-15T05:51:37;38.97;;;28.77;;
11988;SDS011;6054;50.966;7.094;2023-05-15T05:54:04;39.25;;;28.88;;
11988;SDS011;6054;50.966;7.094;2023-05-15T05:56:32;39.58;;;27.42;;
11988;SDS011;6054;50.966;7.094;2023-05-15T05:58:59;40.80;;;28.73;;
11988;SDS011;6054;50.966;7.094;2023-05-15T06:01:26;40.35;;;29.23;;
11988;SDS011;6054;50.966;7.094;2023-05-15T06:03:53;39.00;;;28.08;;
11988;SDS011;6054;50.966;7.094;2023-05-15T06:06:21;39.90;;;27.05;;
11988;SDS011;6054;50.966;7.094;2023-05-15T06:08:48;37.92;;;28.50;;
11988;SDS011;6054;50.966;7.094;2023-05-15T06:11:15;42.22;;;27.60;;
11988;SDS011;6054;50.966;7.094;2023-05-15T06:13:43;42.60;;;29.88;;
11988;SDS011;6054;50.966;7.094;2023-05-15T06:16:10;43.97;;;30.25;;
11988;SDS011;6054;50.966;7.094;2023-05-15T06:18:36;43.85;;;31.98;;
11988;SDS011;6054;50.966;7.094;2023-05-15T06:21:04;45.63;;;31.63;;
11988;SDS011;6054;50.966;7.094;2023-05-15T06:23:31;41.22;;;30.00;;
11988;SDS011;6054;50.966;7.094;2023-05-15T06:25:58;35.70;;;26.70;;
11988;SDS011;6054;50.966;7.094;2023-05-15T06:28:25;36.70;;;27.45;;
11988;SDS011;6054;50.966;7.094;2023-05-15T06:30:53;39.70;;;28.30;;
11988;SDS011;6054;50.966;7.094;2023-05-15T06:33:20;36.92;;;28.35;;
11988;SDS011;6054;50.966;7.094;2023-05-15T06:35:47;38.42;;;27.60;;
11988;SDS011;6054;50.966;7.094;2023-05-15T06:38:14;36.45;;;26.98;;
11988;SDS011;6054;50.966;7.094;2023-05-15T06:40:41;36.03;;;27.42;;
11988;SDS011;6054;50.966;7.094;2023-05-15T06:43:08;32.92;;;26.77;;
11988;SDS011;6054;50.966;7.094;2023-05-15T06:45:35;32.70;;;26.00;;
11988;SDS011;6054;50.966;7.094;2023-05-15T06:48:03;31.40;;;25.83;;
11988;SDS011;6054;50.966;7.094;2023-05-15T06:50:30;32.53;;;25.90;;
11988;SDS011;6054;50.966;7.094;2023-05-15T06:52:57;32.78;;;26.45;;
11988;SDS011;6054;50.966;7.094;2023-05-15T06:55:24;35.75;;;29.20;;
11988;SDS011;6054;50.966;7.094;2023-05-15T06:57:51;34.28;;;26.88;;
11988;SDS011;6054;50.966;7.094;2023-05-15T07:00:17;37.38;;;28.10;;
11988;SDS011;6054;50.966;7.094;2023-05-15T07:02:44;37.95;;;28.05;;
11988;SDS011;6054;50.966;7.094;2023-05-15T07:05:13;35.97;;;28.65;;
11988;SDS011;6054;50.966;7.094;2023-05-15T07:07:39;36.63;;;29.13;;
11988;SDS011;6054;50.966;7.094;2023-05-15T07:10:07;39.13;;;27.20;;
11988;SDS011;6054;50.966;7.094;2023-05-15T07:12:34;33.03;;;28.83;;
11988;SDS011;6054;50.966;7.094;2023-05-15T07:15:01;36.58;;;29.20;;
11988;SDS011;6054;50.966;7.094;2023-05-15T07:17:30;41.55;;;32.45;;
11988;SDS011;6054;50.966;7.094;2023-05-15T07:19:58;45.45;;;36.28;;
11988;SDS011;6054;50.966;7.094;2023-05-15T07:22:26;44.78;;;34.45;;
11988;SDS011;6054;50.966;7.094;2023-05-15T07:24:53;40.55;;;32.40;;
11988;SDS011;6054;50.966;7.094;2023-05-15T07:27:20;41.33;;;31.98;;
11988;SDS011;6054;50.966;7.094;2023-05-15T07:29:47;40.70;;;31.38;;
11988;SDS011;6054;50.966;7.094;2023-05-15T07:32:13;40.17;;;32.00;;
11988;SDS011;6054;50.966;7.094;2023-05-15T07:34:40;40.95;;;32.58;;
11988;SDS011;6054;50.966;7.094;2023-05-15T07:37:07;40.80;;;30.73;;
11988;SDS011;6054;50.966;7.094;2023-05-15T07:39:35;41.58;;;32.33;;
11988;SDS011;6054;50.966;7.094;2023-05-15T07:42:02;48.55;;;31.45;;
11988;SDS011;6054;50.966;7.094;2023-05-15T07:44:29;38.35;;;30.35;;
11988;SDS011;6054;50.966;7.094;2023-05-15T07:46:55;44.20;;;33.55;;
11988;SDS011;6054;50.966;7.094;2023-05-15T07:49:24;49.42;;;33.92;;
11988;SDS011;6054;50.966;7.094;2023-05-15T07:51:50;40.50;;;32.90;;
11988;SDS011;6054;50.966;7.094;2023-05-15T07:54:17;40.63;;;31.38;;
11988;SDS011;6054;50.966;7.094;2023-05-15T07:56:46;43.03;;;32.35;;
11988;SDS011;6054;50.966;7.094;2023-05-15T07:59:13;37.58;;;29.92;;
11988;SDS011;6054;50.966;7.094;2023-05-15T08:01:40;37.35;;;31.00;;
11988;SDS011;6054;50.966;7.094;2023-05-15T08:04:07;37.47;;;30.05;;
11988;SDS011;6054;50.966;7.094;2023-05-15T08:06:34;38.17;;;31.15;;
11988;SDS011;6054;50.966;7.094;2023-05-15T08:09:02;39.97;;;31.65;;
11988;SDS011;6054;50.966;7.094;2023-05-15T08:11:29;35.15;;;30.60;;
11988;SDS011;6054;50.966;7.094;2023-05-15T08:13:57;36.63;;;29.75;;
11988;SDS011;6054;50.966;7.094;2023-05-15T08:16:23;37.47;;;30.83;;
11988;SDS011;6054;50.966;7.094;2023-05-15T08:18:50;40.60;;;31.63;;
11988;SDS011;6054;50.966;7.094;2023-05-15T08:21:22;36.95;;;29.40;;
11988;SDS011;6054;50.966;7.094;2023-05-15T08:23:49;37.00;;;30.77;;
11988;SDS011;6054;50.966;7.094;2023-05-15T08:26:15;44.67;;;33.25;;
11988;SDS011;6054;50.966;7.094;2023-05-15T08:28:42;45.65;;;32.45;;
11988;SDS011;6054;50.966;7.094;2023-05-15T08:31:10;43.33;;;34.28;;
11988;SDS011;6054;50.966;7.094;2023-05-15T08:33:37;42.80;;;34.15;;
11988;SDS011;6054;50.966;7.094;2023-05-15T08:36:04;43.92;;;34.60;;
11988;SDS011;6054;50.966;7.094;2023-05-15T08:38:31;41.40;;;32.85;;
11988;SDS011;6054;50.966;7.094;2023-05-15T08:40:59;38.22;;;30.85;;
11988;SDS011;6054;50.966;7.094;2023-05-15T08:43:31;37.47;;;29.73;;
11988;SDS011;6054;50.966;7.094;2023-05-15T08:46:01;40.22;;;31.33;;
11988;SDS011;6054;50.966;7.094;2023-05-15T08:48:31;34.50;;;28.63;;
11988;SDS011;6054;50.966;7.094;2023-05-15T08:51:03;32.05;;;28.33;;
11988;SDS011;6054;50.966;7.094;2023-05-15T08:53:34;36.35;;;29.25;;
11988;SDS011;6054;50.966;7.094;2023-05-15T08:56:01;35.60;;;29.10;;
11988;SDS011;6054;50.966;7.094;2023-05-15T08:58:31;35.53;;;29.15;;
11988;SDS011;6054;50.966;7.094;2023-05-15T09:00:58;36.60;;;30.02;;
11988;SDS011;6054;50.966;7.094;2023-05-15T09:03:26;38.45;;;32.35;;
11988;SDS011;6054;50.966;7.094;2023-05-15T09:05:54;43.55;;;33.90;;
11988;SDS011;6054;50.966;7.094;2023-05-15T09:08:21;40.10;;;31.92;;
11988;SDS011;6054;50.966;7.094;2023-05-15T09:10:50;42.72;;;33.40;;
11988;SDS011;6054;50.966;7.094;2023-05-15T09:13:18;39.00;;;33.35;;
11988;SDS011;6054;50.966;7.094;2023-05-15T09:15:45;49.53;;;38.03;;
11988;SDS011;6054;50.966;7.094;2023-05-15T09:18:12;42.10;;;33.80;;
11988;SDS011;6054;50.966;7.094;2023-05-15T09:20:40;65.35;;;46.53;;
11988;SDS011;6054;50.966;7.094;2023-05-15T09:23:21;61.42;;;46.78;;
11988;SDS011;6054;50.966;7.094;2023-05-15T09:25:49;62.50;;;46.25;;
11988;SDS011;6054;50.966;7.094;2023-05-15T09:28:26;60.83;;;45.90;;
11988;SDS011;6054;50.966;7.094;2023-05-15T09:30:57;49.40;;;41.53;;
11988;SDS011;6054;50.966;7.094;2023-05-15T09:33:32;48.45;;;40.95;;
11988;SDS011;6054;50.966;7.094;2023-05-15T09:36:00;43.85;;;35.63;;
11988;SDS011;6054;50.966;7.094;2023-05-15T09:38:28;46.97;;;35.00;;
11988;SDS011;6054;50.966;7.094;2023-05-15T09:41:01;37.90;;;33.80;;
11988;SDS011;6054;50.966;7.094;2023-05-15T09:43:32;40.95;;;35.53;;
11988;SDS011;6054;50.966;7.094;2023-05-15T09:46:00;36.00;;;32.10;;
11988;SDS011;6054;50.966;7.094;2023-05-15T09:48:27;38.78;;;32.30;;
11988;SDS011;6054;50.966;7.094;2023-05-15T09:50:54;39.30;;;32.88;;
11988;SDS011;6054;50.966;7.094;2023-05-15T09:53:21;37.58;;;33.55;;
11988;SDS011;6054;50.966;7.094;2023-05-15T09:55:50;38.65;;;34.42;;
11988;SDS011;6054;50.966;7.094;2023-05-15T09:58:18;42.83;;;34.78;;
11988;SDS011;6054;50.966;7.094;2023-05-15T10:00:45;39.22;;;34.33;;
11988;SDS011;6054;50.966;7.094;2023-05-15T10:03:13;37.80;;;33.67;;
11988;SDS011;6054;50.966;7.094;2023-05-15T10:05:40;35.80;;;32.05;;
11988;SDS011;6054;50.966;7.094;2023-05-15T10:08:07;37.28;;;33.38;;
11988;SDS011;6054;50.966;7.094;2023-05-15T10:10:33;38.15;;;32.95;;
11988;SDS011;6054;50.966;7.094;2023-05-15T10:13:02;32.92;;;29.25;;
11988;SDS011;6054;50.966;7.094;2023-05-15T10:15:30;31.70;;;28.23;;
11988;SDS011;6054;50.966;7.094;2023-05-15T10:17:57;32.80;;;29.55;;
11988;SDS011;6054;50.966;7.094;2023-05-15T10:20:26;33.75;;;28.10;;
11988;SDS011;6054;50.966;7.094;2023-05-15T10:22:54;30.73;;;27.17;;
11988;SDS011;6054;50.966;7.094;2023-05-15T10:25:25;30.13;;;24.75;;
11988;SDS011;6054;50.966;7.094;2023-05-15T10:27:57;26.02;;;23.25;;
11988;SDS011;6054;50.966;7.094;2023-05-15T10:30:26;26.15;;;23.50;;
11988;SDS011;6054;50.966;7.094;2023-05-15T10:32:54;25.58;;;22.80;;
11988;SDS011;6054;50.966;7.094;2023-05-15T10:35:21;26.10;;;23.25;;
11988;SDS011;6054;50.966;7.094;2023-05-15T10:37:48;24.70;;;22.02;;
11988;SDS011;6054;50.966;7.094;2023-05-15T10:40:15;27.23;;;22.83;;
11988;SDS011;6054;50.966;7.094;2023-05-15T10:42:43;25.58;;;21.98;;
11988;SDS011;6054;50.966;7.094;2023-05-15T10:45:11;23.70;;;21.23;;
11988;SDS011;6054;50.966;7.094;2023-05-15T10:47:40;24.80;;;20.58;;
11988;SDS011;6054;50.966;7.094;2023-05-15T10:50:08;21.23;;;19.05;;
11988;SDS011;6054;50.966;7.094;2023-05-15T10:52:37;20.90;;;18.65;;
11988;SDS011;6054;50.966;7.094;2023-05-15T10:55:07;23.58;;;19.75;;
11988;SDS011;6054;50.966;7.094;2023-05-15T10:57:38;24.98;;;21.70;;
11988;SDS011;6054;50.966;7.094;2023-05-15T11:00:18;25.80;;;22.42;;
11988;SDS011;6054;50.966;7.094;2023-05-15T11:02:52;24.80;;;20.60;;
11988;SDS011;6054;50.966;7.094;2023-05-15T11:05:21;22.02;;;19.58;;
11988;SDS011;6054;50.966;7.094;2023-05-15T11:10:49;20.40;;;18.02;;
11988;SDS011;6054;50.966;7.094;2023-05-15T11:13:16;18.30;;;15.25;;
11988;SDS011;6054;50.966;7.094;2023-05-15T11:15:43;19.80;;;16.50;;
11988;SDS011;6054;50.966;7.094;2023-05-15T11:18:12;20.60;;;17.05;;
11988;SDS011;6054;50.966;7.094;2023-05-15T11:20:40;23.25;;;17.50;;
11988;SDS011;6054;50.966;7.094;2023-05-15T11:23:29;19.40;;;16.58;;
11988;SDS011;6054;50.966;7.094;2023-05-15T11:26:03;19.90;;;16.85;;
11988;SDS011;6054;50.966;7.094;2023-05-15T11:28:34;20.02;;;16.42;;
11988;SDS011;6054;50.966;7.094;2023-05-15T11:31:06;20.02;;;16.15;;
11988;SDS011;6054;50.966;7.094;2023-05-15T11:33:33;19.60;;;16.98;;
11988;SDS011;6054;50.966;7.094;2023-05-15T11:36:04;19.27;;;16.38;;
11988;SDS011;6054;50.966;7.094;2023-05-15T11:38:36;17.60;;;15.80;;
11988;SDS011;6054;50.966;7.094;2023-05-15T11:41:15;15.30;;;13.48;;
11988;SDS011;6054;50.966;7.094;2023-05-15T11:43:43;16.15;;;14.35;;
11988;SDS011;6054;50.966;7.094;2023-05-15T11:46:11;12.38;;;11.05;;
11988;SDS011;6054;50.966;7.094;2023-05-15T11:48:39;13.30;;;11.95;;
11988;SDS011;6054;50.966;7.094;2023-05-15T11:51:13;16.27;;;11.45;;
11988;SDS011;6054;50.966;7.094;2023-05-15T11:53:43;15.82;;;11.48;;
11988;SDS011;6054;50.966;7.094;2023-05-15T11:56:11;15.95;;;12.32;;
11988;SDS011;6054;50.966;7.094;2023-05-15T11:58:38;13.48;;;12.15;;
11988;SDS011;6054;50.966;7.094;2023-05-15T12:01:08;17.15;;;11.43;;
11988;SDS011;6054;50.966;7.094;2023-05-15T12:03:36;20.08;;;10.57;;
11988;SDS011;6054;50.966;7.094;2023-05-15T12:06:02;15.98;;;11.88;;
11988;SDS011;6054;50.966;7.094;2023-05-15T12:08:30;15.30;;;11.85;;
11988;SDS011;6054;50.966;7.094;2023-05-15T12:10:59;16.25;;;10.65;;
11988;SDS011;6054;50.966;7.094;2023-05-15T12:13:27;14.20;;;12.23;;
11988;SDS011;6054;50.966;7.094;2023-05-15T12:15:54;15.80;;;11.75;;
11988;SDS011;6054;50.966;7.094;2023-05-15T12:18:21;15.60;;;12.90;;
11988;SDS011;6054;50.966;7.094;2023-05-15T12:20:50;13.73;;;11.35;;
11988;SDS011;6054;50.966;7.094;2023-05-15T12:23:19;13.13;;;11.80;;
11988;SDS011;6054;50.966;7.094;2023-05-15T12:25:47;14.38;;;12.90;;
11988;SDS011;6054;50.966;7.094;2023-05-15T12:28:17;14.32;;;12.93;;
11988;SDS011;6054;50.966;7.094;2023-05-15T12:30:44;15.75;;;14.15;;
11988;SDS011;6054;50.966;7.094;2023-05-15T12:33:11;15.25;;;13.65;;
11988;SDS011;6054;50.966;7.094;2023-05-15T12:35:40;14.55;;;13.05;;
11988;SDS011;6054;50.966;7.094;2023-05-15T12:38:10;13.55;;;11.43;;
11988;SDS011;6054;50.966;7.094;2023-05-15T12:40:40;13.15;;;11.90;;
11988;SDS011;6054;50.966;7.094;2023-05-15T12:43:09;13.48;;;12.18;;
11988;SDS011;6054;50.966;7.094;2023-05-15T12:45:38;13.20;;;10.68;;
11988;SDS011;6054;50.966;7.094;2023-05-15T12:48:05;11.55;;;10.43;;
11988;SDS011;6054;50.966;7.094;2023-05-15T12:50:32;13.57;;;10.98;;
11988;SDS011;6054;50.966;7.094;2023-05-15T12:53:01;12.60;;;10.70;;
11988;SDS011;6054;50.966;7.094;2023-05-15T12:55:30;11.38;;;9.43;;
11988;SDS011;6054;50.966;7.094;2023-05-15T12:57:59;11.63;;;9.43;;
11988;SDS011;6054;50.966;7.094;2023-05-15T13:00:28;10.00;;;8.95;;
11988;SDS011;6054;50.966;7.094;2023-05-15T13:02:57;12.23;;;10.77;;
11988;SDS011;6054;50.966;7.094;2023-05-15T13:05:24;11.38;;;9.95;;
11988;SDS011;6054;50.966;7.094;2023-05-15T13:07:51;11.77;;;10.27;;
11988;SDS011;6054;50.966;7.094;2023-05-15T13:10:19;12.30;;;9.70;;
11988;SDS011;6054;50.966;7.094;2023-05-15T13:12:47;9.57;;;6.65;;
11988;SDS011;6054;50.966;7.094;2023-05-15T13:15:22;5.45;;;4.72;;
11988;SDS011;6054;50.966;7.094;2023-05-15T13:17:51;10.63;;;6.45;;
11988;SDS011;6054;50.966;7.094;2023-05-15T13:20:26;7.60;;;6.15;;
11988;SDS011;6054;50.966;7.094;2023-05-15T13:22:54;5.57;;;5.07;;
11988;SDS011;6054;50.966;7.094;2023-05-15T13:25:20;7.80;;;5.32;;
11988;SDS011;6054;50.966;7.094;2023-05-15T13:27:47;8.10;;;5.00;;
11988;SDS011;6054;50.966;7.094;2023-05-15T13:30:15;5.88;;;5.38;;
11988;SDS011;6054;50.966;7.094;2023-05-15T13:32:42;7.25;;;6.20;;
11988;SDS011;6054;50.966;7.094;2023-05-15T13:35:10;6.18;;;5.30;;
11988;SDS011;6054;50.966;7.094;2023-05-15T13:37:37;8.50;;;7.50;;
11988;SDS011;6054;50.966;7.094;2023-05-15T13:40:06;9.07;;;8.18;;
11988;SDS011;6054;50.966;7.094;2023-05-15T13:42:34;8.48;;;7.30;;
11988;SDS011;6054;50.966;7.094;2023-05-15T13:45:02;9.35;;;6.80;;
11988;SDS011;6054;50.966;7.094;2023-05-15T13:47:30;7.20;;;6.50;;
11988;SDS011;6054;50.966;7.094;2023-05-15T13:49:56;10.10;;;7.85;;
11988;SDS011;6054;50.966;7.094;2023-05-15T13:52:25;8.52;;;7.72;;
11988;SDS011;6054;50.966;7.094;2023-05-15T13:54:52;8.48;;;7.68;;
11988;SDS011;6054;50.966;7.094;2023-05-15T13:57:19;8.98;;;6.65;;
11988;SDS011;6054;50.966;7.094;2023-05-15T13:59:46;8.00;;;7.20;;
11988;SDS011;6054;50.966;7.094;2023-05-15T14:02:13;8.50;;;6.45;;
11988;SDS011;6054;50.966;7.094;2023-05-15T14:04:39;8.85;;;7.03;;
11988;SDS011;6054;50.966;7.094;2023-05-15T14:07:06;8.88;;;7.97;;
11988;SDS011;6054;50.966;7.094;2023-05-15T14:09:34;9.35;;;7.45;;
11988;SDS011;6054;50.966;7.094;2023-05-15T14:12:01;8.43;;;7.60;;
11988;SDS011;6054;50.966;7.094;2023-05-15T14:14:28;10.05;;;6.60;;
11988;SDS011;6054;50.966;7.094;2023-05-15T14:16:55;13.13;;;7.53;;
11988;SDS011;6054;50.966;7.094;2023-05-15T14:19:21;8.25;;;6.22;;
11988;SDS011;6054;50.966;7.094;2023-05-15T14:21:48;6.63;;;5.53;;
11988;SDS011;6054;50.966;7.094;2023-05-15T14:24:15;7.55;;;6.25;;
11988;SDS011;6054;50.966;7.094;2023-05-15T14:26:43;28.05;;;6.13;;
11988;SDS011;6054;50.966;7.094;2023-05-15T14:29:10;6.70;;;6.07;;
11988;SDS011;6054;50.966;7.094;2023-05-15T14:31:39;7.35;;;6.70;;
11988;SDS011;6054;50.966;7.094;2023-05-15T14:34:06;10.32;;;7.15;;
11988;SDS011;6054;50.966;7.094;2023-05-15T14:36:32;8.20;;;7.47;;
11988;SDS011;6054;50.966;7.094;2023-05-15T14:38:59;10.80;;;9.70;;
11988;SDS011;6054;50.966;7.094;2023-05-15T14:41:26;11.48;;;10.48;;
11988;SDS011;6054;50.966;7.094;2023-05-15T14:43:54;11.57;;;10.48;;
11988;SDS011;6054;50.966;7.094;2023-05-15T14:46:21;12.98;;;11.57;;
11988;SDS011;6054;50.966;7.094;2023-05-15T14:48:48;12.68;;;11.38;;
11988;SDS011;6054;50.966;7.094;2023-05-15T14:51:17;12.85;;;10.57;;
11988;SDS011;6054;50.966;7.094;2023-05-15T14:53:44;13.30;;;11.73;;
11988;SDS011;6054;50.966;7.094;2023-05-15T14:56:11;12.15;;;10.95;;